sensor_id;sensor_type;location;lat;lon;timestamp;pressure;altitude;pressure_sealevel;temperature;humidity
80198;BME280;69517;52.030;7.106;2023-12-14T00:00:32;99861.53;;;21.52;71.53
80198;BME280;69517;52.030;7.106;2023-12-14T00:02:58;99862.38;;;21.53;71.80
80198;BME280;69517;52.030;7.106;2023-12-14T00:05:26;99868.72;;;21.50;71.81
80198;BME280;69517;52.030;7.106;2023-12-14T00:07:52;99865.53;;;21.47;72.11
80198;BME280;69517;52.030;7.106;2023-12-14T00:10:19;99868.84;;;21.49;71.74
80198;BME280;69517;52.030;7.106;2023-12-14T00:12:45;99880.31;;;21.48;72.05
80198;BME280;69517;52.030;7.106;2023-12-14T00:15:11;99890.16;;;21.45;72.00
80198;BME280;69517;52.030;7.106;2023-12-14T00:17:38;99891.66;;;21.48;71.66
80198;BME280;69517;52.030;7.106;2023-12-14T00:20:04;99892.50;;;21.49;71.71
80198;BME280;69517;52.030;7.106;2023-12-14T00:22:32;99897.09;;;21.47;71.62
80198;BME280;69517;52.030;7.106;2023-12-14T00:24:59;99900.66;;;21.45;71.62
80198;BME280;69517;52.030;7.106;2023-12-14T00:27:25;99901.63;;;21.44;71.60
80198;BME280;69517;52.030;7.106;2023-12-14T00:29:51;99898.28;;;21.42;71.69
80198;BME280;69517;52.030;7.106;2023-12-14T00:32:18;99915.00;;;21.41;71.64
80198;BME280;69517;52.030;7.106;2023-12-14T00:34:44;99908.09;;;21.40;71.71
80198;BME280;69517;52.030;7.106;2023-12-14T00:37:10;99919.56;;;21.39;71.68
80198;BME280;69517;52.030;7.106;2023-12-14T00:39:38;99917.06;;;21.38;71.95
80198;BME280;69517;52.030;7.106;2023-12-14T00:42:04;99928.41;;;21.38;71.81
80198;BME280;69517;52.030;7.106;2023-12-14T00:44:30;99930.31;;;21.36;71.72
80198;BME280;69517;52.030;7.106;2023-12-14T00:46:57;99938.22;;;21.36;71.60
80198;BME280;69517;52.030;7.106;2023-12-14T00:49:25;99945.25;;;21.36;71.71
80198;BME280;69517;52.030;7.106;2023-12-14T00:51:53;99947.91;;;21.36;71.59
80198;BME280;69517;52.030;7.106;2023-12-14T00:54:19;99962.97;;;21.34;71.53
80198;BME280;69517;52.030;7.106;2023-12-14T00:56:46;99957.72;;;21.34;71.85
80198;BME280;69517;52.030;7.106;2023-12-14T00:59:13;99970.25;;;21.30;71.91
80198;BME280;69517;52.030;7.106;2023-12-14T01:01:39;99975.41;;;21.32;71.68
80198;BME280;69517;52.030;7.106;2023-12-14T01:04:05;99976.47;;;21.29;71.68
80198;BME280;69517;52.030;7.106;2023-12-14T01:06:31;99986.16;;;21.29;71.89
80198;BME280;69517;52.030;7.106;2023-12-14T01:08:58;99987.97;;;21.28;71.87
80198;BME280;69517;52.030;7.106;2023-12-14T01:11:24;99996.81;;;21.27;71.75
80198;BME280;69517;52.030;7.106;2023-12-14T01:13:52;100000.41;;;21.26;71.72
80198;BME280;69517;52.030;7.106;2023-12-14T01:16:18;100003.03;;;21.26;71.70
80198;BME280;69517;52.030;7.106;2023-12-14T01:18:45;100021.53;;;21.25;71.87
80198;BME280;69517;52.030;7.106;2023-12-14T01:21:11;100024.19;;;21.25;71.87
80198;BME280;69517;52.030;7.106;2023-12-14T01:23:37;100024.19;;;21.25;71.80
80198;BME280;69517;52.030;7.106;2023-12-14T01:26:04;100028.72;;;21.23;71.86
80198;BME280;69517;52.030;7.106;2023-12-14T01:28:30;100027.06;;;21.22;71.83
80198;BME280;69517;52.030;7.106;2023-12-14T01:30:58;100030.66;;;21.21;71.81
80198;BME280;69517;52.030;7.106;2023-12-14T01:33:24;100035.06;;;21.20;71.93
80198;BME280;69517;52.030;7.106;2023-12-14T01:35:50;100033.38;;;21.19;71.87
80198;BME280;69517;52.030;7.106;2023-12-14T01:38:16;100037.09;;;21.17;71.85
80198;BME280;69517;52.030;7.106;2023-12-14T01:40:43;100038.75;;;21.18;71.79
80198;BME280;69517;52.030;7.106;2023-12-14T01:43:09;100046.88;;;21.15;71.85
80198;BME280;69517;52.030;7.106;2023-12-14T01:45:36;100051.06;;;21.17;71.78
80198;BME280;69517;52.030;7.106;2023-12-14T01:48:03;100050.22;;;21.17;71.71
80198;BME280;69517;52.030;7.106;2023-12-14T01:50:30;100067.06;;;21.14;71.82
80198;BME280;69517;52.030;7.106;2023-12-14T01:52:55;100062.75;;;21.13;71.79
80198;BME280;69517;52.030;7.106;2023-12-14T01:55:21;100065.50;;;21.12;71.82
80198;BME280;69517;52.030;7.106;2023-12-14T01:57:48;100075.16;;;21.11;71.71
80198;BME280;69517;52.030;7.106;2023-12-14T02:00:18;100083.19;;;21.10;71.77
80198;BME280;69517;52.030;7.106;2023-12-14T02:02:44;100083.31;;;21.08;71.86
80198;BME280;69517;52.030;7.106;2023-12-14T02:05:12;100084.25;;;21.07;72.08
80198;BME280;69517;52.030;7.106;2023-12-14T02:07:38;100089.50;;;21.07;71.82
80198;BME280;69517;52.030;7.106;2023-12-14T02:10:05;100093.81;;;21.08;71.93
80198;BME280;69517;52.030;7.106;2023-12-14T02:12:32;100096.44;;;21.08;71.89
80198;BME280;69517;52.030;7.106;2023-12-14T02:14:59;100105.53;;;21.04;72.00
80198;BME280;69517;52.030;7.106;2023-12-14T02:17:25;100100.97;;;21.06;71.78
80198;BME280;69517;52.030;7.106;2023-12-14T02:19:51;100108.16;;;21.04;71.97
80198;BME280;69517;52.030;7.106;2023-12-14T02:22:19;100109.97;;;21.03;71.83
80198;BME280;69517;52.030;7.106;2023-12-14T02:24:46;100121.41;;;21.02;71.72
80198;BME280;69517;52.030;7.106;2023-12-14T02:27:13;100113.44;;;21.04;71.83
80198;BME280;69517;52.030;7.106;2023-12-14T02:29:39;100122.47;;;21.00;71.99
80198;BME280;69517;52.030;7.106;2023-12-14T02:32:05;100121.63;;;20.99;71.78
80198;BME280;69517;52.030;7.106;2023-12-14T02:34:32;100132.16;;;20.99;71.79
80198;BME280;69517;52.030;7.106;2023-12-14T02:36:58;100129.66;;;20.98;72.11
80198;BME280;69517;52.030;7.106;2023-12-14T02:39:24;100128.00;;;20.97;72.15
80198;BME280;69517;52.030;7.106;2023-12-14T02:41:52;100127.16;;;20.96;72.05
80198;BME280;69517;52.030;7.106;2023-12-14T02:44:18;100133.25;;;20.97;72.16
80198;BME280;69517;52.030;7.106;2023-12-14T02:46:44;100141.25;;;20.95;72.13
80198;BME280;69517;52.030;7.106;2023-12-14T02:49:10;100140.66;;;20.92;72.44
80198;BME280;69517;52.030;7.106;2023-12-14T02:51:37;100142.28;;;20.93;72.23
80198;BME280;69517;52.030;7.106;2023-12-14T02:54:03;100146.72;;;20.92;72.31
80198;BME280;69517;52.030;7.106;2023-12-14T02:56:29;100145.75;;;20.93;72.19
80198;BME280;69517;52.030;7.106;2023-12-14T02:58:57;100152.09;;;20.91;72.34
80198;BME280;69517;52.030;7.106;2023-12-14T03:01:23;100160.84;;;20.91;72.16
80198;BME280;69517;52.030;7.106;2023-12-14T03:03:49;100165.25;;;20.91;72.11
80198;BME280;69517;52.030;7.106;2023-12-14T03:06:16;100169.78;;;20.89;72.23
80198;BME280;69517;52.030;7.106;2023-12-14T03:08:41;100168.19;;;20.86;72.47
80198;BME280;69517;52.030;7.106;2023-12-14T03:11:07;100175.13;;;20.87;72.22
80198;BME280;69517;52.030;7.106;2023-12-14T03:13:33;100173.44;;;20.86;72.34
80198;BME280;69517;52.030;7.106;2023-12-14T03:16:01;100179.44;;;20.88;72.23
80198;BME280;69517;52.030;7.106;2023-12-14T03:18:27;100181.97;;;20.90;72.15
80198;BME280;69517;52.030;7.106;2023-12-14T03:20:54;100179.34;;;20.90;72.13
80198;BME280;69517;52.030;7.106;2023-12-14T03:23:20;100187.22;;;20.90;72.04
80198;BME280;69517;52.030;7.106;2023-12-14T03:25:46;100197.00;;;20.88;71.86
80198;BME280;69517;52.030;7.106;2023-12-14T03:28:13;100195.09;;;20.90;71.92
80198;BME280;69517;52.030;7.106;2023-12-14T03:30:39;100198.69;;;20.89;71.90
80198;BME280;69517;52.030;7.106;2023-12-14T03:33:07;100196.16;;;20.87;71.91
80198;BME280;69517;52.030;7.106;2023-12-14T03:35:33;100207.50;;;20.88;71.95
80198;BME280;69517;52.030;7.106;2023-12-14T03:37:59;100210.97;;;20.88;71.95
80198;BME280;69517;52.030;7.106;2023-12-14T03:40:26;100218.13;;;20.86;71.84
80198;BME280;69517;52.030;7.106;2023-12-14T03:42:52;100223.38;;;20.86;71.83
80198;BME280;69517;52.030;7.106;2023-12-14T03:45:18;100226.97;;;20.85;71.94
80198;BME280;69517;52.030;7.106;2023-12-14T03:47:44;100233.06;;;20.86;71.89
80198;BME280;69517;52.030;7.106;2023-12-14T03:50:12;100235.69;;;20.86;71.82
80198;BME280;69517;52.030;7.106;2023-12-14T03:52:38;100241.91;;;20.85;71.84
80198;BME280;69517;52.030;7.106;2023-12-14T03:55:05;100239.28;;;20.85;71.90
80198;BME280;69517;52.030;7.106;2023-12-14T03:57:31;100242.84;;;20.84;71.78
80198;BME280;69517;52.030;7.106;2023-12-14T03:59:58;100249.06;;;20.83;71.87
80198;BME280;69517;52.030;7.106;2023-12-14T04:02:24;100243.81;;;20.83;71.82
80198;BME280;69517;52.030;7.106;2023-12-14T04:04:50;100253.56;;;20.81;71.85
80198;BME280;69517;52.030;7.106;2023-12-14T04:07:18;100261.00;;;20.87;71.92
80198;BME280;69517;52.030;7.106;2023-12-14T04:09:44;100268.44;;;20.93;71.72
80198;BME280;69517;52.030;7.106;2023-12-14T04:12:11;100268.31;;;20.94;71.60
80198;BME280;69517;52.030;7.106;2023-12-14T04:14:37;100275.84;;;20.99;71.40
80198;BME280;69517;52.030;7.106;2023-12-14T04:17:04;100278.28;;;21.02;71.23
80198;BME280;69517;52.030;7.106;2023-12-14T04:19:30;100282.44;;;21.04;71.30
80198;BME280;69517;52.030;7.106;2023-12-14T04:21:56;100278.75;;;21.07;71.15
80198;BME280;69517;52.030;7.106;2023-12-14T04:24:24;100283.91;;;21.09;71.13
80198;BME280;69517;52.030;7.106;2023-12-14T04:26:50;100296.94;;;21.10;70.89
80198;BME280;69517;52.030;7.106;2023-12-14T04:29:16;100298.50;;;21.13;71.05
80198;BME280;69517;52.030;7.106;2023-12-14T04:31:43;100304.59;;;21.13;71.02
80198;BME280;69517;52.030;7.106;2023-12-14T04:34:09;100309.75;;;21.15;70.99
80198;BME280;69517;52.030;7.106;2023-12-14T04:36:40;100306.19;;;21.16;70.87
80198;BME280;69517;52.030;7.106;2023-12-14T04:39:06;100319.22;;;21.17;70.95
80198;BME280;69517;52.030;7.106;2023-12-14T04:41:34;100324.25;;;21.20;70.87
80198;BME280;69517;52.030;7.106;2023-12-14T04:44:00;100325.94;;;21.21;70.89
80198;BME280;69517;52.030;7.106;2023-12-14T04:46:26;100325.78;;;21.23;70.83
80198;BME280;69517;52.030;7.106;2023-12-14T04:48:52;100327.47;;;21.24;70.87
80198;BME280;69517;52.030;7.106;2023-12-14T04:51:19;100330.94;;;21.24;70.89
80198;BME280;69517;52.030;7.106;2023-12-14T04:53:45;100332.63;;;21.25;70.77
80198;BME280;69517;52.030;7.106;2023-12-14T04:56:11;100334.31;;;21.26;70.95
80198;BME280;69517;52.030;7.106;2023-12-14T04:58:39;100338.72;;;21.26;70.89
80198;BME280;69517;52.030;7.106;2023-12-14T05:01:06;100343.88;;;21.27;70.76
80198;BME280;69517;52.030;7.106;2023-12-14T05:03:32;100337.69;;;21.28;70.89
80198;BME280;69517;52.030;7.106;2023-12-14T05:05:59;100337.69;;;21.28;70.83
80198;BME280;69517;52.030;7.106;2023-12-14T05:08:25;100340.16;;;21.30;70.80
80198;BME280;69517;52.030;7.106;2023-12-14T05:10:51;100346.25;;;21.30;70.87
80198;BME280;69517;52.030;7.106;2023-12-14T05:13:18;100339.31;;;21.29;70.91
80198;BME280;69517;52.030;7.106;2023-12-14T05:15:45;100349.72;;;21.31;70.72
80198;BME280;69517;52.030;7.106;2023-12-14T05:18:11;100356.69;;;21.32;70.87
80198;BME280;69517;52.030;7.106;2023-12-14T05:20:38;100354.88;;;21.32;70.74
80198;BME280;69517;52.030;7.106;2023-12-14T05:23:04;100357.50;;;21.32;70.82
80198;BME280;69517;52.030;7.106;2023-12-14T05:25:30;100355.63;;;21.34;70.84
80198;BME280;69517;52.030;7.106;2023-12-14T05:27:56;100353.94;;;21.33;70.85
80198;BME280;69517;52.030;7.106;2023-12-14T05:30:23;100359.06;;;21.35;70.85
80198;BME280;69517;52.030;7.106;2023-12-14T05:32:50;100359.91;;;21.35;70.84
80198;BME280;69517;52.030;7.106;2023-12-14T05:35:17;100356.44;;;21.35;70.86
80198;BME280;69517;52.030;7.106;2023-12-14T05:37:43;100369.47;;;21.36;70.78
80198;BME280;69517;52.030;7.106;2023-12-14T05:40:09;100376.53;;;21.36;70.85
80198;BME280;69517;52.030;7.106;2023-12-14T05:42:36;100376.53;;;21.36;70.80
80198;BME280;69517;52.030;7.106;2023-12-14T05:45:02;100388.72;;;21.37;70.66
80198;BME280;69517;52.030;7.106;2023-12-14T05:47:29;100390.41;;;21.38;70.74
80198;BME280;69517;52.030;7.106;2023-12-14T05:49:59;100393.03;;;21.38;70.77
80198;BME280;69517;52.030;7.106;2023-12-14T05:52:25;100401.75;;;21.38;70.78
80198;BME280;69517;52.030;7.106;2023-12-14T05:54:51;100405.25;;;21.39;70.75
80198;BME280;69517;52.030;7.106;2023-12-14T05:57:17;100418.38;;;21.39;70.76
80198;BME280;69517;52.030;7.106;2023-12-14T05:59:44;100420.06;;;21.40;70.78
80198;BME280;69517;52.030;7.106;2023-12-14T06:02:10;100420.06;;;21.40;70.71
80198;BME280;69517;52.030;7.106;2023-12-14T06:04:36;100438.34;;;21.41;70.82
80198;BME280;69517;52.030;7.106;2023-12-14T06:07:04;100438.34;;;21.41;70.73
80198;BME280;69517;52.030;7.106;2023-12-14T06:09:30;100446.22;;;21.41;70.70
80198;BME280;69517;52.030;7.106;2023-12-14T06:11:59;100447.91;;;21.42;70.76
80198;BME280;69517;52.030;7.106;2023-12-14T06:14:25;100455.81;;;21.42;70.76
80198;BME280;69517;52.030;7.106;2023-12-14T06:16:51;100457.50;;;21.43;70.80
80198;BME280;69517;52.030;7.106;2023-12-14T06:19:18;100465.38;;;21.43;70.90
80198;BME280;69517;52.030;7.106;2023-12-14T06:21:44;100474.22;;;21.42;70.78
80198;BME280;69517;52.030;7.106;2023-12-14T06:24:12;100488.09;;;21.44;70.76
80198;BME280;69517;52.030;7.106;2023-12-14T06:26:40;100486.06;;;21.48;70.58
80198;BME280;69517;52.030;7.106;2023-12-14T06:29:06;100488.88;;;21.58;70.24
80198;BME280;69517;52.030;7.106;2023-12-14T06:31:33;100499.47;;;21.69;69.88
80198;BME280;69517;52.030;7.106;2023-12-14T06:33:59;100499.50;;;21.80;69.54
80198;BME280;69517;52.030;7.106;2023-12-14T06:36:28;100512.09;;;21.88;69.30
80198;BME280;69517;52.030;7.106;2023-12-14T06:38:55;100519.63;;;21.92;69.00
80198;BME280;69517;52.030;7.106;2023-12-14T06:41:23;100522.25;;;21.92;68.90
80198;BME280;69517;52.030;7.106;2023-12-14T06:43:49;100518.69;;;21.93;69.01
80198;BME280;69517;52.030;7.106;2023-12-14T06:46:16;100534.28;;;21.96;68.90
80198;BME280;69517;52.030;7.106;2023-12-14T06:48:42;100536.38;;;21.91;69.16
80198;BME280;69517;52.030;7.106;2023-12-14T06:51:08;100534.16;;;21.98;69.05
80198;BME280;69517;52.030;7.106;2023-12-14T06:53:35;100541.84;;;22.01;69.10
80198;BME280;69517;52.030;7.106;2023-12-14T06:56:02;100542.44;;;22.04;68.90
80198;BME280;69517;52.030;7.106;2023-12-14T06:58:30;100542.44;;;22.04;68.89
80198;BME280;69517;52.030;7.106;2023-12-14T07:00:56;100554.66;;;22.05;68.84
80198;BME280;69517;52.030;7.106;2023-12-14T07:03:23;100556.34;;;22.06;68.97
80198;BME280;69517;52.030;7.106;2023-12-14T07:05:49;100553.72;;;22.06;68.80
80198;BME280;69517;52.030;7.106;2023-12-14T07:08:15;100559.91;;;22.05;69.00
80198;BME280;69517;52.030;7.106;2023-12-14T07:10:41;100564.34;;;22.05;68.85
80198;BME280;69517;52.030;7.106;2023-12-14T07:13:08;100560.28;;;22.01;69.25
80198;BME280;69517;52.030;7.106;2023-12-14T07:15:35;100568.38;;;21.98;69.54
80198;BME280;69517;52.030;7.106;2023-12-14T07:18:01;100570.28;;;21.96;69.64
80198;BME280;69517;52.030;7.106;2023-12-14T07:20:28;100572.59;;;22.00;69.49
80198;BME280;69517;52.030;7.106;2023-12-14T07:22:54;100577.84;;;22.00;69.50
80198;BME280;69517;52.030;7.106;2023-12-14T07:25:20;100591.03;;;22.00;69.46
80198;BME280;69517;52.030;7.106;2023-12-14T07:27:47;100589.53;;;21.96;69.76
80198;BME280;69517;52.030;7.106;2023-12-14T07:30:13;100596.91;;;21.91;70.18
80198;BME280;69517;52.030;7.106;2023-12-14T07:32:41;100612.59;;;21.93;70.30
80198;BME280;69517;52.030;7.106;2023-12-14T07:35:07;100613.97;;;21.98;70.69
80198;BME280;69517;52.030;7.106;2023-12-14T07:37:34;100621.66;;;22.01;71.05
80198;BME280;69517;52.030;7.106;2023-12-14T07:40:00;100623.78;;;21.96;70.98
80198;BME280;69517;52.030;7.106;2023-12-14T07:42:28;100615.75;;;21.98;70.97
80198;BME280;69517;52.030;7.106;2023-12-14T07:44:54;100615.56;;;22.01;71.34
80198;BME280;69517;52.030;7.106;2023-12-14T07:47:20;100612.78;;;22.02;71.46
80198;BME280;69517;52.030;7.106;2023-12-14T07:49:48;100619.84;;;22.02;71.32
80198;BME280;69517;52.030;7.106;2023-12-14T07:52:14;100614.47;;;22.03;71.59
80198;BME280;69517;52.030;7.106;2023-12-14T07:54:40;100625.00;;;22.03;71.62
80198;BME280;69517;52.030;7.106;2023-12-14T07:57:07;100633.84;;;22.02;71.53
80198;BME280;69517;52.030;7.106;2023-12-14T07:59:33;100639.13;;;22.02;71.54
80198;BME280;69517;52.030;7.106;2023-12-14T08:01:59;100642.94;;;21.98;71.41
80198;BME280;69517;52.030;7.106;2023-12-14T08:04:26;100651.25;;;21.92;71.60
80198;BME280;69517;52.030;7.106;2023-12-14T08:06:53;100667.03;;;21.92;71.53
80198;BME280;69517;52.030;7.106;2023-12-14T08:09:21;100659.97;;;21.93;71.47
80198;BME280;69517;52.030;7.106;2023-12-14T08:11:47;100671.56;;;21.90;71.69
80198;BME280;69517;52.030;7.106;2023-12-14T08:14:15;100684.13;;;21.86;71.84
80198;BME280;69517;52.030;7.106;2023-12-14T08:16:41;100694.03;;;21.83;71.64
80198;BME280;69517;52.030;7.106;2023-12-14T08:19:07;100693.06;;;21.84;71.75
80198;BME280;69517;52.030;7.106;2023-12-14T08:21:33;100694.97;;;21.82;71.54
80198;BME280;69517;52.030;7.106;2023-12-14T08:24:01;100708.13;;;21.82;71.63
80198;BME280;69517;52.030;7.106;2023-12-14T08:26:27;100712.47;;;21.83;71.46
80198;BME280;69517;52.030;7.106;2023-12-14T08:28:53;100719.94;;;21.76;71.38
80198;BME280;69517;52.030;7.106;2023-12-14T08:31:20;100728.38;;;21.69;70.77
80198;BME280;69517;52.030;7.106;2023-12-14T08:33:46;100738.25;;;21.65;69.95
80198;BME280;69517;52.030;7.106;2023-12-14T08:36:14;100740.06;;;21.65;69.68
80198;BME280;69517;52.030;7.106;2023-12-14T08:38:40;100742.91;;;21.62;69.30
80198;BME280;69517;52.030;7.106;2023-12-14T08:41:07;100752.38;;;21.64;69.07
80198;BME280;69517;52.030;7.106;2023-12-14T08:43:33;100759.94;;;21.69;68.75
80198;BME280;69517;52.030;7.106;2023-12-14T08:46:00;100760.88;;;21.68;69.11
80198;BME280;69517;52.030;7.106;2023-12-14T08:48:26;100760.06;;;21.67;69.58
80198;BME280;69517;52.030;7.106;2023-12-14T08:50:53;100769.13;;;21.63;69.54
80198;BME280;69517;52.030;7.106;2023-12-14T08:53:19;100774.38;;;21.63;69.23
80198;BME280;69517;52.030;7.106;2023-12-14T08:55:45;100780.47;;;21.64;69.54
80198;BME280;69517;52.030;7.106;2023-12-14T08:58:13;100771.66;;;21.65;69.29
80198;BME280;69517;52.030;7.106;2023-12-14T09:00:39;100776.91;;;21.65;69.36
80198;BME280;69517;52.030;7.106;2023-12-14T09:03:06;100782.97;;;21.65;69.37
80198;BME280;69517;52.030;7.106;2023-12-14T09:05:32;100793.84;;;21.48;66.45
80198;BME280;69517;52.030;7.106;2023-12-14T09:07:58;100796.03;;;21.16;65.51
80198;BME280;69517;52.030;7.106;2023-12-14T09:10:25;100789.94;;;20.89;62.67
80198;BME280;69517;52.030;7.106;2023-12-14T09:12:51;100794.31;;;20.76;61.20
80198;BME280;69517;52.030;7.106;2023-12-14T09:15:19;100798.94;;;20.72;60.69
80198;BME280;69517;52.030;7.106;2023-12-14T09:17:45;100806.91;;;20.71;58.99
80198;BME280;69517;52.030;7.106;2023-12-14T09:20:12;100802.66;;;20.82;59.97
80198;BME280;69517;52.030;7.106;2023-12-14T09:22:38;100811.19;;;20.86;60.62
80198;BME280;69517;52.030;7.106;2023-12-14T09:25:05;100810.44;;;20.84;60.29
80198;BME280;69517;52.030;7.106;2023-12-14T09:27:32;100810.84;;;20.78;57.57
80198;BME280;69517;52.030;7.106;2023-12-14T09:29:58;100814.25;;;21.05;57.87
80198;BME280;69517;52.030;7.106;2023-12-14T09:32:26;100813.28;;;21.20;55.97
80198;BME280;69517;52.030;7.106;2023-12-14T09:34:52;100822.22;;;21.18;57.25
80198;BME280;69517;52.030;7.106;2023-12-14T09:37:21;100825.28;;;21.24;58.18
80198;BME280;69517;52.030;7.106;2023-12-14T09:39:47;100829.00;;;21.34;58.36
80198;BME280;69517;52.030;7.106;2023-12-14T09:42:14;100836.88;;;21.47;58.67
80198;BME280;69517;52.030;7.106;2023-12-14T09:44:42;100833.72;;;21.55;58.97
80198;BME280;69517;52.030;7.106;2023-12-14T09:47:09;100847.19;;;21.63;59.22
80198;BME280;69517;52.030;7.106;2023-12-14T09:49:37;100840.44;;;21.71;59.48
80198;BME280;69517;52.030;7.106;2023-12-14T09:52:03;100851.41;;;21.78;59.64
80198;BME280;69517;52.030;7.106;2023-12-14T09:54:29;100850.97;;;21.84;59.90
80198;BME280;69517;52.030;7.106;2023-12-14T09:56:55;100853.50;;;21.85;60.36
80198;BME280;69517;52.030;7.106;2023-12-14T09:59:22;100856.78;;;21.89;61.07
80198;BME280;69517;52.030;7.106;2023-12-14T10:01:48;100861.81;;;21.79;61.38
80198;BME280;69517;52.030;7.106;2023-12-14T10:04:15;100855.53;;;21.69;61.69
80198;BME280;69517;52.030;7.106;2023-12-14T10:06:42;100861.31;;;21.62;61.48
80198;BME280;69517;52.030;7.106;2023-12-14T10:09:09;100860.13;;;21.66;61.20
80198;BME280;69517;52.030;7.106;2023-12-14T10:11:39;100870.16;;;21.73;61.05
80198;BME280;69517;52.030;7.106;2023-12-14T10:14:17;100860.69;;;21.71;61.21
80198;BME280;69517;52.030;7.106;2023-12-14T10:16:43;100872.44;;;21.65;61.70
80198;BME280;69517;52.030;7.106;2023-12-14T10:19:09;100877.09;;;21.62;61.90
80198;BME280;69517;52.030;7.106;2023-12-14T10:21:36;100883.53;;;21.70;61.74
80198;BME280;69517;52.030;7.106;2023-12-14T10:24:04;100888.47;;;21.75;61.73
80198;BME280;69517;52.030;7.106;2023-12-14T10:26:31;100891.63;;;21.80;61.79
80198;BME280;69517;52.030;7.106;2023-12-14T10:28:57;100900.03;;;21.85;61.84
80198;BME280;69517;52.030;7.106;2023-12-14T10:31:23;100903.41;;;21.87;62.01
80198;BME280;69517;52.030;7.106;2023-12-14T10:33:51;100910.38;;;21.88;62.09
80198;BME280;69517;52.030;7.106;2023-12-14T10:36:17;100910.78;;;21.82;62.46
80198;BME280;69517;52.030;7.106;2023-12-14T10:38:44;100916.91;;;21.82;62.71
80198;BME280;69517;52.030;7.106;2023-12-14T10:41:15;100925.66;;;21.83;62.60
80198;BME280;69517;52.030;7.106;2023-12-14T10:43:43;100926.78;;;21.79;62.78
80198;BME280;69517;52.030;7.106;2023-12-14T10:46:10;100926.78;;;21.79;62.73
80198;BME280;69517;52.030;7.106;2023-12-14T10:48:36;100933.97;;;21.77;62.87
80198;BME280;69517;52.030;7.106;2023-12-14T10:51:03;100928.88;;;21.74;63.06
80198;BME280;69517;52.030;7.106;2023-12-14T10:53:30;100932.38;;;21.74;63.13
80198;BME280;69517;52.030;7.106;2023-12-14T10:55:57;100933.13;;;21.76;63.12
80198;BME280;69517;52.030;7.106;2023-12-14T10:58:26;100933.22;;;21.75;63.36
80198;BME280;69517;52.030;7.106;2023-12-14T11:00:59;100931.31;;;21.77;63.12
80198;BME280;69517;52.030;7.106;2023-12-14T11:03:30;100935.44;;;21.81;63.01
80198;BME280;69517;52.030;7.106;2023-12-14T11:05:59;100941.53;;;21.81;63.16
80198;BME280;69517;52.030;7.106;2023-12-14T11:08:25;100939.63;;;21.83;63.07
80198;BME280;69517;52.030;7.106;2023-12-14T11:10:52;100944.06;;;21.83;63.44
80198;BME280;69517;52.030;7.106;2023-12-14T11:13:20;100946.06;;;21.92;63.43
80198;BME280;69517;52.030;7.106;2023-12-14T11:15:49;100951.16;;;21.95;64.37
80198;BME280;69517;52.030;7.106;2023-12-14T11:18:19;100961.56;;;21.97;65.42
80198;BME280;69517;52.030;7.106;2023-12-14T11:20:48;100964.09;;;21.98;65.82
80198;BME280;69517;52.030;7.106;2023-12-14T11:23:15;100966.97;;;21.95;66.02
80198;BME280;69517;52.030;7.106;2023-12-14T11:25:43;100969.66;;;21.94;66.38
80198;BME280;69517;52.030;7.106;2023-12-14T11:28:09;100975.78;;;21.94;66.43
80198;BME280;69517;52.030;7.106;2023-12-14T11:30:38;100969.75;;;21.92;66.40
80198;BME280;69517;52.030;7.106;2023-12-14T11:33:05;100961.84;;;21.92;66.55
80198;BME280;69517;52.030;7.106;2023-12-14T11:35:32;100964.59;;;21.91;66.70
80198;BME280;69517;52.030;7.106;2023-12-14T11:37:58;100972.47;;;21.91;66.55
80198;BME280;69517;52.030;7.106;2023-12-14T11:40:27;100977.75;;;21.91;66.73
80198;BME280;69517;52.030;7.106;2023-12-14T11:42:57;100971.00;;;21.86;66.77
80198;BME280;69517;52.030;7.106;2023-12-14T11:45:24;100970.41;;;21.83;66.51
80198;BME280;69517;52.030;7.106;2023-12-14T11:47:50;100960.91;;;21.80;66.28
80198;BME280;69517;52.030;7.106;2023-12-14T11:50:19;100966.34;;;21.77;66.09
80198;BME280;69517;52.030;7.106;2023-12-14T11:52:46;100971.00;;;21.74;66.09
80198;BME280;69517;52.030;7.106;2023-12-14T11:55:12;100976.66;;;21.68;65.10
80198;BME280;69517;52.030;7.106;2023-12-14T11:57:45;100976.75;;;21.66;64.85
80198;BME280;69517;52.030;7.106;2023-12-14T12:00:12;100972.25;;;21.68;64.73
80198;BME280;69517;52.030;7.106;2023-12-14T12:02:39;100971.31;;;21.69;64.56
80198;BME280;69517;52.030;7.106;2023-12-14T12:05:05;100974.66;;;21.71;64.55
80198;BME280;69517;52.030;7.106;2023-12-14T12:07:33;100965.09;;;21.70;64.69
80198;BME280;69517;52.030;7.106;2023-12-14T12:09:59;100965.94;;;21.71;64.76
80198;BME280;69517;52.030;7.106;2023-12-14T12:12:26;100966.75;;;21.71;64.78
80198;BME280;69517;52.030;7.106;2023-12-14T12:14:52;100972.03;;;21.71;64.76
80198;BME280;69517;52.030;7.106;2023-12-14T12:17:19;100978.13;;;21.72;65.06
80198;BME280;69517;52.030;7.106;2023-12-14T12:19:45;100977.41;;;21.70;65.08
80198;BME280;69517;52.030;7.106;2023-12-14T12:22:11;100994.06;;;21.70;65.35
80198;BME280;69517;52.030;7.106;2023-12-14T12:24:39;100997.53;;;21.71;65.37
80198;BME280;69517;52.030;7.106;2023-12-14T12:27:05;100992.25;;;21.71;65.34
80198;BME280;69517;52.030;7.106;2023-12-14T12:29:34;101002.78;;;21.71;65.37
80198;BME280;69517;52.030;7.106;2023-12-14T12:32:00;100999.19;;;21.72;65.41
80198;BME280;69517;52.030;7.106;2023-12-14T12:34:26;101000.97;;;21.71;65.57
80198;BME280;69517;52.030;7.106;2023-12-14T12:36:52;101001.09;;;21.70;65.64
80198;BME280;69517;52.030;7.106;2023-12-14T12:39:19;101007.31;;;21.69;65.82
80198;BME280;69517;52.030;7.106;2023-12-14T12:41:46;101009.94;;;21.69;65.77
80198;BME280;69517;52.030;7.106;2023-12-14T12:44:13;101015.19;;;21.69;65.91
80198;BME280;69517;52.030;7.106;2023-12-14T12:46:39;101013.31;;;21.71;65.98